Time;durP1;ratioP1;P1;durP2;ratioP2;P2;SDS_P1;SDS_P2;PMS_P1;PMS_P2;Temp;Humidity;BMP_temperature;BMP_pressure;BME280_temperature;BME280_humidity;BME280_pressure;Samples;Min_cycle;Max_cycle;Signal;HPM_P1;HPM_P2
2023/03/01 00:01:41;;;;;;;19.27;12.40;;;;;;;-0.53;89.63;101523.13;5046379;28;20045;-91
2023/03/01 00:04:25;;;;;;;16.08;11.88;;;;;;;-0.21;89.86;101578.28;5038906;28;20097;-93
2023/03/01 00:07:04;;;;;;;21.55;13.05;;;;;;;-0.55;90.05;101524.81;5039179;28;20095;-92
2023/03/01 00:09:47;;;;;;;20.27;12.65;;;;;;;-0.21;89.91;101579.16;5034410;28;20060;-92
2023/03/01 00:12:28;;;;;;;19.27;12.95;;;;;;;-0.23;89.52;101580.00;5053727;28;20037;-91
2023/03/01 00:15:09;;;;;;;21.00;12.70;;;;;;;-0.25;90.29;101586.88;5052650;28;20056;-90
2023/03/01 00:17:57;;;;;;;19.80;13.13;;;;;;;-0.24;89.68;101580.84;5043730;28;20133;-92
2023/03/01 00:20:34;;;;;;;21.55;12.95;;;;;;;-0.60;89.97;101524.75;5036624;28;20044;-91
2023/03/01 00:23:07;;;;;;;19.95;12.30;;;;;;;-0.82;90.05;101481.03;5052535;28;20041;-89
2023/03/01 00:26:07;;;;;;;18.50;13.13;;;;;;;-0.26;90.37;101579.94;5044193;28;20044;-90
2023/03/01 00:28:55;;;;;;;21.40;13.48;;;;;;;-0.28;90.63;101571.22;5054957;28;20053;-91
2023/03/01 00:31:30;;;;;;;22.63;13.55;;;;;;;-0.25;90.93;101571.28;5046143;28;20521;-92
2023/03/01 00:34:12;;;;;;;21.75;13.68;;;;;;;-0.22;90.59;101568.72;5046459;28;20063;-91
2023/03/01 00:37:23;;;;;;;22.75;13.93;;;;;;;-0.67;90.73;101507.31;5046604;28;20045;-91
2023/03/01 00:40:10;;;;;;;23.00;13.15;;;;;;;-0.60;90.98;101516.94;5007239;28;20061;-91
2023/03/01 00:43:17;;;;;;;21.85;12.50;;;;;;;-0.30;91.32;101557.31;5009114;28;20065;-93
2023/03/01 00:46:05;;;;;;;21.10;13.05;;;;;;;-0.40;90.25;101525.06;5039268;28;20060;-91
2023/03/01 00:49:01;;;;;;;20.05;13.35;;;;;;;-0.28;91.31;101553.00;5046905;28;20040;-92
2023/03/01 00:51:58;;;;;;;21.73;13.73;;;;;;;-0.51;91.39;101514.50;5035945;28;20068;-90
2023/03/01 00:54:55;;;;;;;21.83;13.32;;;;;;;-0.83;90.79;101459.34;5031484;28;20042;-91
2023/03/01 00:57:42;;;;;;;21.45;14.35;;;;;;;-0.32;91.13;101553.81;5051294;28;20065;-91
2023/03/01 01:00:55;;;;;;;20.65;12.57;;;;;;;-0.55;91.45;101514.41;5038520;28;20043;-91
2023/03/01 01:04:06;;;;;;;22.65;14.02;;;;;;;-0.34;91.58;101558.13;5038910;28;20037;-90
2023/03/01 01:07:00;;;;;;;22.13;13.98;;;;;;;-0.51;91.32;101518.81;5037043;28;20041;-93
2023/03/01 01:10:25;;;;;;;20.35;13.43;;;;;;;-0.33;91.96;101544.28;5051085;28;20045;-92
2023/03/01 01:13:17;;;;;;;21.02;13.18;;;;;;;-0.36;92.01;101538.16;5051924;28;20049;-91
2023/03/01 01:16:15;;;;;;;18.50;12.70;;;;;;;-0.33;92.20;101539.06;5043100;28;20136;-92
2023/03/01 01:19:03;;;;;;;21.20;13.32;;;;;;;-0.31;92.09;101529.53;5053361;28;20064;-91
2023/03/01 01:21:54;;;;;;;24.02;14.07;;;;;;;-0.38;92.39;101512.97;5012178;28;20076;-91
2023/03/01 01:24:34;;;;;;;20.65;13.45;;;;;;;-0.28;92.28;101530.44;5054880;28;20099;-92
2023/03/01 01:27:21;;;;;;;23.15;13.55;;;;;;;-0.28;92.23;101516.56;5057138;28;20040;-92
2023/03/01 01:30:10;;;;;;;20.65;13.10;;;;;;;-0.30;92.17;101510.44;5049267;28;20050;-93
2023/03/01 01:33:01;;;;;;;21.02;13.15;;;;;;;-0.42;92.56;101482.53;5053786;28;20037;-92
2023/03/01 01:35:43;;;;;;;24.27;14.23;;;;;;;-0.34;92.15;101490.47;5013459;28;20089;-91
2023/03/01 01:38:31;;;;;;;22.98;13.98;;;;;;;-0.31;92.57;101487.88;5023569;28;20033;-91
2023/03/01 01:41:41;;;;;;;22.33;13.63;;;;;;;-0.33;92.97;101487.00;5047484;28;20045;-92
2023/03/01 01:45:04;;;;;;;21.52;13.45;;;;;;;-0.28;92.25;101495.75;5038077;28;20046;-91
2023/03/01 01:48:04;;;;;;;21.20;12.90;;;;;;;-0.63;92.95;101448.41;5053485;28;20040;-90
2023/03/01 01:51:00;;;;;;;24.55;13.38;;;;;;;-0.53;93.09;101482.38;5042728;28;20041;-91
2023/03/01 01:53:28;;;;;;;24.08;14.38;;;;;;;-0.53;93.12;101474.56;5033319;28;20048;-90
2023/03/01 01:56:20;;;;;;;22.73;13.63;;;;;;;-0.52;93.57;101478.03;5035430;28;20056;-90
2023/03/01 01:58:53;;;;;;;22.10;14.40;;;;;;;-0.42;93.70;101493.81;5031121;28;20375;-91
2023/03/01 02:01:48;;;;;;;21.90;13.98;;;;;;;-0.34;94.28;101503.47;5039962;28;20120;-91
2023/03/01 02:04:23;;;;;;;22.90;14.13;;;;;;;-0.38;94.24;101494.75;5042124;28;20442;-91
2023/03/01 02:07:06;;;;;;;23.35;13.05;;;;;;;-0.49;94.20;101473.78;5042437;28;20068;-91
2023/03/01 02:10:06;;;;;;;22.33;13.30;;;;;;;-0.37;93.91;101489.56;5041919;28;20068;-90
2023/03/01 02:12:38;;;;;;;24.77;14.50;;;;;;;-0.68;93.60;101431.84;5041782;28;20041;-90
2023/03/01 02:15:21;;;;;;;21.42;14.00;;;;;;;-0.67;94.31;101446.59;5022253;28;20044;-91
2023/03/01 02:18:07;;;;;;;22.08;14.13;;;;;;;-0.52;94.31;101471.13;5024169;28;20033;-92
2023/03/01 02:20:45;;;;;;;24.15;14.85;;;;;;;-0.34;94.23;101503.47;5037908;28;20026;-91
2023/03/01 02:23:43;;;;;;;20.85;13.43;;;;;;;-0.36;94.84;101499.13;5031007;28;20107;-92
2023/03/01 02:26:44;;;;;;;20.63;13.80;;;;;;;-0.49;95.25;101468.56;5041434;28;20038;-91
2023/03/01 02:29:56;;;;;;;24.05;14.55;;;;;;;-0.36;94.70;101485.22;5041482;28;20048;-92
2023/03/01 02:32:53;;;;;;;23.08;14.15;;;;;;;-0.38;94.66;101482.59;5048052;28;20041;-91
2023/03/01 02:35:48;;;;;;;21.10;14.13;;;;;;;-0.40;94.28;101476.50;5050735;28;20033;-91
2023/03/01 02:38:47;;;;;;;22.45;14.25;;;;;;;-0.43;94.79;101479.06;5051812;28;20029;-92
2023/03/01 02:41:39;;;;;;;22.13;14.75;;;;;;;-0.78;94.82;101418.69;5051054;28;20060;-92
2023/03/01 02:44:29;;;;;;;22.13;14.55;;;;;;;-0.44;95.01;101461.69;5047054;28;20033;-92
2023/03/01 02:47:29;;;;;;;23.30;14.48;;;;;;;-0.39;94.68;101462.63;5054225;28;20080;-92
2023/03/01 02:50:25;;;;;;;;;;;;;;;-0.38;94.25;101456.59;5019297;28;20029;-91
2023/03/01 02:53:52;;;;;;;21.88;13.70;;;;;;;-0.36;93.70;101454.00;5038398;28;19909;-92
2023/03/01 02:56:35;;;;;;;28.48;15.85;;;;;;;-0.37;93.44;101452.25;5049159;28;20033;-90
2023/03/01 02:59:39;;;;;;;24.27;14.65;;;;;;;-0.50;93.79;101426.91;5062240;28;20038;-91
2023/03/01 03:02:35;;;;;;;25.27;14.98;;;;;;;-0.40;93.39;101442.66;5041875;28;20058;-92
2023/03/01 03:05:33;;;;;;;25.75;14.88;;;;;;;-0.65;94.07;101406.75;5040687;28;20041;-91
2023/03/01 03:08:45;;;;;;;23.35;14.77;;;;;;;-0.42;93.69;101435.69;5045852;28;20433;-91
2023/03/01 03:11:32;;;;;;;24.25;15.23;;;;;;;-0.53;94.13;101414.72;5034198;28;20037;-92
2023/03/01 03:14:12;;;;;;;24.52;15.32;;;;;;;-0.42;94.15;101425.28;5041195;28;20083;-92
2023/03/01 03:17:00;;;;;;;25.17;15.02;;;;;;;-0.47;94.43;101409.59;5039596;28;20057;-92
2023/03/01 03:19:48;;;;;;;25.20;15.98;;;;;;;-0.38;93.74;101424.47;5038838;28;20144;-91
2023/03/01 03:22:40;;;;;;;28.38;16.23;;;;;;;-0.40;93.13;101420.97;5031939;28;20048;-92
2023/03/01 03:25:32;;;;;;;23.73;16.10;;;;;;;-0.72;92.96;101361.56;5029416;28;20049;-90
2023/03/01 03:28:30;;;;;;;28.60;16.05;;;;;;;-0.66;92.88;101365.13;5027042;28;20057;-91
2023/03/01 03:31:10;;;;;;;22.58;14.63;;;;;;;-0.40;93.36;101424.44;5049654;28;20056;-91
2023/03/01 03:34:20;;;;;;;24.70;15.45;;;;;;;-0.89;93.60;101342.25;5054672;28;20049;-91
2023/03/01 03:38:01;;;;;;;26.88;15.73;;;;;;;-0.79;94.11;101351.06;5050060;28;20046;-92
2023/03/01 03:39:59;;;;;;;28.45;15.68;;;;;;;-0.66;93.27;101350.38;5054038;28;20064;-91
2023/03/01 03:43:00;;;;;;;23.45;15.05;;;;;;;-1.01;94.08;101315.19;5015404;28;20113;-91
2023/03/01 03:45:40;;;;;;;24.27;15.80;;;;;;;-0.51;93.59;101400.03;5013766;28;20038;-91
2023/03/01 03:48:27;;;;;;;23.15;15.80;;;;;;;-0.53;94.12;101399.13;4988502;28;20058;-91
2023/03/01 03:51:15;;;;;;;26.88;16.42;;;;;;;-0.64;93.40;101381.63;5014084;28;20046;-92
2023/03/01 03:54:00;;;;;;;27.98;16.20;;;;;;;-0.92;94.33;101336.13;5003880;28;20039;-91
2023/03/01 03:56:50;;;;;;;28.08;15.85;;;;;;;-0.70;94.51;101379.78;5011609;28;20076;-91
2023/03/01 03:59:32;;;;;;;27.08;16.50;;;;;;;-0.54;94.42;101402.56;5007190;28;20110;-91
2023/03/01 04:02:08;;;;;;;26.95;16.75;;;;;;;-1.15;94.11;101282.09;5008618;28;20059;-89
2023/03/01 04:04:41;;;;;;;25.85;16.00;;;;;;;-0.48;92.85;101396.59;5004530;28;20080;-91
2023/03/01 04:07:25;;;;;;;;;;;;;;;-0.50;92.88;101398.28;4982548;28;20074;-91
2023/03/01 04:10:08;;;;;;;27.05;15.00;;;;;;;-0.92;93.42;101341.31;4999261;28;19925;-91
2023/03/01 04:12:50;;;;;;;30.33;16.45;;;;;;;-0.70;93.39;101385.00;4989961;28;20038;-91
2023/03/01 04:15:42;;;;;;;29.33;16.48;;;;;;;-0.63;94.32;101407.63;5048807;28;20084;-92
2023/03/01 04:18:18;;;;;;;27.98;16.77;;;;;;;-1.03;94.43;101341.16;5037171;28;20074;-91
2023/03/01 04:20:58;;;;;;;30.30;16.33;;;;;;;-0.68;95.29;101404.09;5036011;28;20069;-93
2023/03/01 04:23:40;;;;;;;29.05;17.70;;;;;;;-0.67;95.50;101400.66;5037925;28;20097;-92
2023/03/01 04:26:13;;;;;;;27.85;16.70;;;;;;;-0.73;95.11;101400.56;5057743;28;20129;-91
2023/03/01 04:28:49;;;;;;;29.38;16.52;;;;;;;-0.71;95.10;101406.66;5030744;28;20037;-93
2023/03/01 04:31:43;;;;;;;29.15;15.80;;;;;;;-0.75;95.56;101410.94;5036229;28;20057;-89
2023/03/01 04:34:27;;;;;;;28.05;16.10;;;;;;;-1.10;96.30;101341.91;5046766;28;20100;-92
2023/03/01 04:36:59;;;;;;;28.15;16.60;;;;;;;-0.71;95.59;101404.94;5049858;28;20041;-92
2023/03/01 04:39:26;;;;;;;27.20;17.50;;;;;;;-1.14;95.72;101341.00;5042773;28;20046;-91
2023/03/01 04:41:55;;;;;;;30.33;17.20;;;;;;;-0.99;96.07;101355.97;5044002;28;20203;-90
2023/03/01 04:44:39;;;;;;;27.27;17.08;;;;;;;-0.81;96.18;101392.66;5015199;28;20062;-91
2023/03/01 04:47:09;;;;;;;28.75;17.00;;;;;;;-1.06;96.47;101338.50;5031800;28;20065;-92
2023/03/01 04:49:41;;;;;;;29.60;16.77;;;;;;;-0.77;95.90;101390.94;5038297;28;20052;-90
2023/03/01 04:52:38;;;;;;;28.55;16.27;;;;;;;-0.76;96.50;101390.09;5033667;28;20317;-89
2023/03/01 04:55:14;;;;;;;31.35;16.30;;;;;;;-1.04;96.29;101342.00;5030204;28;20046;-92
2023/03/01 04:57:45;;;;;;;28.40;16.65;;;;;;;-0.77;96.09;101393.53;5028644;28;20045;-93
2023/03/01 05:00:30;;;;;;;27.25;17.35;;;;;;;-1.21;96.62;101320.09;5022880;28;20244;-93
2023/03/01 05:03:02;;;;;;;33.20;17.15;;;;;;;-1.41;96.25;101278.19;5011196;28;20053;-90
2023/03/01 05:05:36;;;;;;;26.25;16.65;;;;;;;-0.76;95.98;101384.91;5037072;28;20097;-92
2023/03/01 05:08:20;;;;;;;30.17;16.73;;;;;;;-0.74;96.04;101378.00;5034682;28;20061;-92
2023/03/01 05:11:05;;;;;;;25.88;16.23;;;;;;;-0.70;95.49;101390.19;5033352;28;20097;-93
2023/03/01 05:14:20;;;;;;;28.90;15.75;;;;;;;-1.30;96.10;101300.03;5018227;28;20045;-92
2023/03/01 05:17:03;;;;;;;28.23;16.42;;;;;;;-0.79;96.55;101377.91;5015629;28;20196;-92
2023/03/01 05:19:55;;;;;;;27.95;16.85;;;;;;;-0.91;96.49;101361.25;5020267;28;20069;-92
2023/03/01 05:22:38;;;;;;;29.10;17.00;;;;;;;-1.14;96.09;101314.16;5011882;28;20060;-92
2023/03/01 05:25:33;;;;;;;30.00;16.98;;;;;;;-0.80;96.35;101391.81;5018749;28;20133;-93
2023/03/01 05:28:15;;;;;;;29.60;17.52;;;;;;;-1.56;96.15;101270.16;5012569;28;20120;-92
2023/03/01 05:31:01;;;;;;;26.77;16.58;;;;;;;-1.50;96.83;101286.72;5018140;28;20494;-91
2023/03/01 05:33:40;;;;;;;28.40;17.05;;;;;;;-0.88;96.68;101389.91;5022331;28;20037;-93
2023/03/01 05:36:14;;;;;;;26.65;16.92;;;;;;;-0.89;96.58;101388.16;5017207;28;20041;-94
2023/03/01 05:38:58;;;;;;;28.55;17.25;;;;;;;-1.58;97.29;101274.47;5031584;28;20374;-91
2023/03/01 05:41:42;;;;;;;29.10;16.85;;;;;;;-1.29;97.58;101319.97;5028373;28;20038;-92
2023/03/01 05:44:30;;;;;;;29.20;16.85;;;;;;;-1.03;97.47;101372.34;5057598;28;20071;-93
2023/03/01 05:47:01;;;;;;;28.92;17.25;;;;;;;-1.30;97.41;101318.22;5042405;28;20037;-94
2023/03/01 05:49:36;;;;;;;27.60;16.65;;;;;;;-1.56;97.48;101264.97;5041567;28;20141;-93
2023/03/01 05:52:11;;;;;;;29.95;17.55;;;;;;;-1.22;97.88;101329.59;5053457;28;20051;-94
2023/03/01 05:54:55;;;;;;;28.45;16.95;;;;;;;-1.64;97.92;101259.66;5031441;28;20049;-93
2023/03/01 05:57:39;;;;;;;28.50;17.40;;;;;;;-1.36;98.37;101306.84;5051805;28;20101;-94
2023/03/01 06:00:27;;;;;;;26.35;15.93;;;;;;;-0.99;98.63;101370.69;5210022;23;20052;-93
2023/03/01 06:03:17;;;;;;;27.83;16.33;;;;;;;-1.14;99.01;101356.59;5101215;28;20060;-93
2023/03/01 06:06:03;;;;;;;32.58;18.02;;;;;;;-1.12;99.56;101365.31;5097237;28;20052;-93
2023/03/01 06:08:47;;;;;;;30.48;17.33;;;;;;;-1.16;100.00;101352.22;5102312;28;20098;-92
2023/03/01 06:11:26;;;;;;;28.98;16.77;;;;;;;-1.06;99.93;101375.78;5084115;28;20046;-92
2023/03/01 06:14:33;;;;;;;30.48;17.08;;;;;;;-1.43;100.00;101316.28;5084872;28;20050;-94
2023/03/01 06:17:16;;;;;;;30.92;17.75;;;;;;;-1.39;100.00;101325.88;5107074;28;20039;-94
2023/03/01 06:20:27;;;;;;;27.85;16.38;;;;;;;-1.45;99.94;101307.59;5096507;28;20054;-93
2023/03/01 06:23:22;;;;;;;30.73;17.30;;;;;;;-1.20;100.00;101350.41;5101952;28;20024;-94
2023/03/01 06:26:18;;;;;;;26.90;16.95;;;;;;;-1.01;100.00;101377.59;5107086;28;20036;-93
2023/03/01 06:29:09;;;;;;;30.85;16.42;;;;;;;-1.36;99.91;101315.53;5096887;28;20170;-94
2023/03/01 06:31:55;;;;;;;28.85;17.42;;;;;;;-1.34;100.00;101326.81;5112335;27;20032;-94
2023/03/01 06:34:44;;;;;;;30.00;17.20;;;;;;;-0.96;100.00;101373.34;5113200;27;20100;-96
2023/03/01 06:38:14;;;;;;;28.05;15.98;;;;;;;-1.29;99.85;101299.19;5098242;28;20032;-93
2023/03/01 06:43:48;;;;;;;30.13;17.35;;;;;;;-0.92;99.88;101336.13;5110049;28;20061;-94
2023/03/01 06:46:39;;;;;;;28.77;16.83;;;;;;;-1.28;98.90;101263.69;5106596;28;20087;-95
2023/03/01 06:50:12;;;;;;;29.25;17.45;;;;;;;-0.62;98.26;101362.56;5101125;28;20049;-95
2023/03/01 06:52:59;;;;;;;29.00;16.65;;;;;;;-0.52;97.95;101359.25;5094397;28;20039;-95
2023/03/01 06:56:07;;;;;;;28.60;16.55;;;;;;;-0.45;96.60;101339.38;5111295;28;20052;-93
2023/03/01 06:58:50;;;;;;;30.58;17.13;;;;;;;-0.29;95.13;101358.66;5104688;28;20027;-96
2023/03/01 07:01:35;;;;;;;28.38;17.02;;;;;;;-0.90;95.63;101252.09;5088486;28;20024;-95
2023/03/01 07:04:28;;;;;;;33.55;16.50;;;;;;;-0.68;94.55;101263.66;5083216;28;20024;-93
2023/03/01 07:07:24;;;;;;;30.33;16.83;;;;;;;-0.09;94.49;101360.66;5098599;28;20043;-92
2023/03/01 07:10:33;;;;;;;29.02;17.05;;;;;;;-0.41;92.92;101304.72;5090096;28;20114;-94
2023/03/01 07:13:31;;;;;;;28.75;16.70;;;;;;;-0.40;93.55;101315.16;5091618;28;20044;-94
2023/03/01 07:16:32;;;;;;;26.38;16.38;;;;;;;-0.49;93.30;101296.84;5080888;28;20044;-94
2023/03/01 07:19:08;;;;;;;29.55;17.38;;;;;;;-0.09;92.78;101364.97;5075861;28;20029;-93
2023/03/01 07:21:53;;;;;;;26.33;16.75;;;;;;;-0.21;93.42;101370.03;5099091;28;20027;-92
2023/03/01 07:24:35;;;;;;;32.67;17.63;;;;;;;-0.29;93.83;101343.03;5092093;28;20024;-95
2023/03/01 07:27:26;;;;;;;30.77;16.85;;;;;;;-0.24;93.75;101357.88;5112109;28;20100;-94
2023/03/01 07:30:11;;;;;;;29.35;17.40;;;;;;;-0.44;94.58;101310.75;5098267;28;20025;-95
2023/03/01 07:32:49;;;;;;;29.90;16.77;;;;;;;-0.36;93.60;101303.94;5097037;28;20036;-92
2023/03/01 07:35:41;;;;;;;31.63;17.85;;;;;;;-0.38;93.42;101292.63;5100237;28;20032;-93
2023/03/01 07:38:25;;;;;;;28.48;17.13;;;;;;;-0.21;93.43;101305.84;5095518;28;20040;-94
2023/03/01 07:41:42;;;;;;;29.98;17.60;;;;;;;0.05;91.35;101347.78;5099467;28;20058;-95
2023/03/01 07:55:09;;;;;;;28.23;17.00;;;;;;;0.20;87.99;101295.84;5102042;28;20120;-96
2023/03/01 07:58:02;;;;;;;27.30;17.90;;;;;;;0.64;87.20;101347.47;5110118;28;20055;-95
2023/03/01 08:00:54;;;;;;;29.65;16.60;;;;;;;0.81;89.35;101355.44;5102598;28;20527;-94
2023/03/01 08:03:57;;;;;;;31.33;17.23;;;;;;;0.32;87.55;101256.00;5109672;28;20044;-92
2023/03/01 08:06:45;;;;;;;31.08;17.50;;;;;;;0.84;86.13;101339.84;5103352;28;20062;-94
2023/03/01 08:10:01;;;;;;;29.05;17.55;;;;;;;0.82;85.67;101342.41;5102549;28;20046;-94
2023/03/01 08:12:54;;;;;;;34.25;18.15;;;;;;;0.65;85.23;101294.50;5105576;28;20094;-94
2023/03/01 08:15:44;;;;;;;29.73;17.38;;;;;;;0.76;85.65;101292.84;5091961;28;20067;-92
2023/03/01 08:18:32;;;;;;;28.92;18.05;;;;;;;1.08;84.26;101298.28;5098044;28;20041;-93
2023/03/01 08:21:12;;;;;;;27.35;17.83;;;;;;;1.25;82.32;101269.69;5100105;28;20109;-94
2023/03/01 08:23:44;;;;;;;28.13;16.90;;;;;;;1.34;81.04;101246.22;5099592;28;20050;-93
2023/03/01 08:26:29;;;;;;;30.05;19.27;;;;;;;2.22;78.08;101330.06;5096862;28;20048;-93
2023/03/01 08:29:08;;;;;;;28.73;17.57;;;;;;;2.52;76.06;101329.22;5097317;28;20052;-92
2023/03/01 08:31:39;;;;;;;26.45;17.20;;;;;;;2.98;72.42;101339.69;5096357;28;20108;-92
2023/03/01 08:34:20;;;;;;;28.25;16.85;;;;;;;2.79;68.38;101242.06;5092633;28;20061;-93
2023/03/01 08:36:49;;;;;;;28.15;16.77;;;;;;;3.44;67.63;101324.78;5064543;28;20040;-94
2023/03/01 08:39:30;;;;;;;28.10;17.20;;;;;;;3.63;65.58;101315.94;5079670;28;20043;-93
2023/03/01 08:42:11;;;;;;;27.50;17.95;;;;;;;3.30;65.20;101259.38;5094886;28;20055;-91
2023/03/01 08:45:21;;;;;;;27.88;16.75;;;;;;;3.43;65.66;101320.41;5089759;28;20424;-91
2023/03/01 08:47:57;;;;;;;27.15;17.35;;;;;;;3.24;65.99;101321.31;5095884;28;20050;-90
2023/03/01 08:50:32;;;;;;;27.83;17.73;;;;;;;2.91;67.89;101317.88;5087258;28;20104;-93
2023/03/01 08:53:00;;;;;;;26.27;17.55;;;;;;;2.39;70.31;101249.91;5106808;28;20036;-93
2023/03/01 08:55:28;;;;;;;30.67;18.17;;;;;;;2.16;70.24;101248.19;5084502;28;20078;-91
2023/03/01 08:58:02;;;;;;;28.80;17.30;;;;;;;2.34;71.69;101303.09;5091003;28;20460;-90
2023/03/01 09:00:36;;;;;;;26.23;17.08;;;;;;;1.86;70.40;101209.84;5092300;28;20032;-92
2023/03/01 09:03:04;;;;;;;29.75;17.58;;;;;;;2.28;70.64;101303.06;5076695;28;20051;-91
2023/03/01 09:05:49;;;;;;;32.22;17.45;;;;;;;2.18;71.22;101277.81;5096631;28;20127;-91
2023/03/01 09:08:33;;;;;;;28.67;17.05;;;;;;;2.05;71.66;101232.47;5101731;28;20063;-89
2023/03/01 09:11:13;;;;;;;27.38;16.33;;;;;;;2.46;71.49;101285.66;5094593;28;20103;-90
2023/03/01 09:13:44;;;;;;;26.90;17.25;;;;;;;2.41;69.24;101263.00;5096883;28;20052;-91
2023/03/01 09:16:16;;;;;;;28.02;16.88;;;;;;;2.43;68.93;101237.72;5095952;28;20047;-93
2023/03/01 09:18:49;;;;;;;29.45;18.27;;;;;;;2.66;68.88;101246.44;5063531;28;20070;-90
2023/03/01 09:21:32;;;;;;;26.63;17.23;;;;;;;3.02;66.66;101284.72;5078499;28;20040;-91
2023/03/01 09:24:14;;;;;;;26.85;17.13;;;;;;;3.02;64.86;101279.50;5073545;28;20040;-92
2023/03/01 09:26:55;;;;;;;29.42;18.27;;;;;;;2.82;65.81;101234.22;5095774;28;20043;-91
2023/03/01 09:29:25;;;;;;;27.02;17.10;;;;;;;2.90;64.87;101208.03;5106870;28;20039;-92
2023/03/01 09:31:57;;;;;;;25.92;16.90;;;;;;;3.11;63.55;101245.47;5108878;28;20040;-91
2023/03/01 09:37:30;;;;;;;30.25;17.13;;;;;;;3.44;62.91;101268.03;5100553;28;20036;-91
2023/03/01 09:40:27;;;;;;;24.75;16.50;;;;;;;3.56;61.83;101261.88;5099167;28;20043;-92
2023/03/01 09:43:18;;;;;;;27.60;16.73;;;;;;;3.18;62.75;101207.91;5104058;28;20032;-91
2023/03/01 09:45:50;;;;;;;28.95;17.20;;;;;;;3.59;61.99;101267.09;5104045;28;20072;-92
2023/03/01 09:49:36;;;;;;;27.98;17.45;;;;;;;3.47;61.85;101248.81;5108082;28;20070;-92
2023/03/01 09:52:19;;;;;;;27.17;16.83;;;;;;;3.63;62.44;101257.47;5103617;28;20044;-90
2023/03/01 09:54:50;;;;;;;24.50;16.25;;;;;;;3.49;61.90;101236.56;5092191;28;20071;-90
2023/03/01 09:57:26;;;;;;;29.67;17.38;;;;;;;3.53;62.30;101235.69;5099722;28;20037;-88
2023/03/01 10:00:19;;;;;;;26.77;16.63;;;;;;;3.46;60.96;101190.31;5103995;28;20047;-91
2023/03/01 10:03:26;;;;;;;26.77;17.02;;;;;;;4.01;60.75;101250.25;5084251;28;20088;-92
2023/03/01 10:06:21;;;;;;;26.05;16.83;;;;;;;4.20;59.30;101245.78;5101541;28;20044;-91
2023/03/01 10:09:17;;;;;;;26.40;16.42;;;;;;;4.30;59.11;101242.19;5100397;28;20052;-91
2023/03/01 10:12:24;;;;;;;27.60;16.58;;;;;;;3.82;58.26;101155.19;5066819;28;20051;-93
2023/03/01 10:15:05;;;;;;;26.75;17.20;;;;;;;4.12;57.62;101203.00;5077221;28;20036;-92
2023/03/01 10:18:05;;;;;;;24.77;17.02;;;;;;;4.12;58.84;101189.91;5098757;28;20111;-93
2023/03/01 10:21:08;;;;;;;26.98;16.58;;;;;;;4.18;58.12;101195.97;5097153;28;20046;-92
2023/03/01 10:23:42;;;;;;;28.55;16.73;;;;;;;4.59;57.94;101252.44;5103449;28;20060;-90
2023/03/01 10:26:53;;;;;;;24.73;15.65;;;;;;;4.79;58.05;101244.38;5079746;28;20051;-92
2023/03/01 10:30:12;;;;;;;24.25;15.77;;;;;;;4.77;56.98;101183.19;5099577;28;20036;-92
2023/03/01 10:32:50;;;;;;;25.05;16.52;;;;;;;5.22;56.40;101235.16;5016845;28;20038;-93
2023/03/01 10:35:37;;;;;;;24.63;17.63;;;;;;;4.99;55.33;101203.06;5085252;28;20052;-90
2023/03/01 10:38:33;;;;;;;26.42;16.52;;;;;;;4.61;55.55;101168.47;5103527;28;20047;-92
2023/03/01 10:41:16;;;;;;;24.45;16.30;;;;;;;4.97;55.28;101219.72;5079511;28;20040;-93
2023/03/01 10:44:47;;;;;;;26.50;16.65;;;;;;;4.90;56.03;101222.38;5071015;28;20291;-93
2023/03/01 10:47:38;;;;;;;25.33;16.17;;;;;;;4.96;56.04;101229.34;5084681;28;20109;-93
2023/03/01 10:50:41;;;;;;;24.02;16.25;;;;;;;5.03;55.37;101212.66;5108345;28;20082;-92
2023/03/01 10:53:37;;;;;;;26.70;16.67;;;;;;;5.20;55.29;101212.41;5109862;28;20051;-95
2023/03/01 10:56:17;;;;;;;26.73;16.98;;;;;;;4.99;54.77;101144.44;5110887;28;20036;-95
2023/03/01 10:59:07;;;;;;;26.20;16.48;;;;;;;5.19;53.92;101151.19;5115736;28;20047;-96
2023/03/01 11:02:05;;;;;;;25.38;16.65;;;;;;;5.04;54.32;101095.34;5092364;28;20040;-94
2023/03/01 11:05:21;;;;;;;28.80;16.27;;;;;;;5.42;53.80;101137.72;5107765;28;20104;-92
2023/03/01 11:08:10;;;;;;;25.13;15.75;;;;;;;5.28;52.74;101103.78;5107967;28;20029;-94
2023/03/01 11:10:46;;;;;;;22.50;16.25;;;;;;;5.76;52.82;101169.66;5110081;28;20044;-94
2023/03/01 11:13:30;;;;;;;27.58;15.60;;;;;;;5.75;53.06;101144.25;5104409;28;20064;-95
2023/03/01 11:16:22;;;;;;;25.17;15.65;;;;;;;6.07;52.42;101158.69;5107214;28;20028;-95
2023/03/01 11:19:22;;;;;;;21.70;14.23;;;;;;;6.18;51.80;101154.09;5097753;28;20032;-94
2023/03/01 11:22:28;;;;;;;28.90;16.20;;;;;;;5.76;51.85;101066.28;5108310;28;20028;-93
2023/03/01 11:25:13;;;;;;;22.05;14.68;;;;;;;6.35;52.11;101152.06;5107054;28;20036;-91
2023/03/01 11:27:46;;;;;;;23.40;15.05;;;;;;;6.32;52.06;101150.34;5099975;28;20107;-92
2023/03/01 11:31:08;;;;;;;23.75;15.70;;;;;;;6.39;51.98;101150.25;5093142;28;20133;-93
2023/03/01 11:34:00;;;;;;;22.90;15.02;;;;;;;6.40;51.82;101139.69;5087727;28;20040;-94
2023/03/01 11:37:01;;;;;;;22.63;15.23;;;;;;;6.48;51.36;101135.16;5098161;28;20538;-94
2023/03/01 11:40:32;;;;;;;23.20;15.85;;;;;;;6.30;50.57;101070.59;5079921;28;20051;-93
2023/03/01 11:43:58;;;;;;;19.92;14.63;;;;;;;6.39;50.57;101069.56;5080669;28;20057;-92
2023/03/01 11:47:02;;;;;;;24.27;14.50;;;;;;;6.90;49.61;101128.22;5076197;28;20330;-93
2023/03/01 11:49:53;;;;;;;23.73;13.73;;;;;;;6.91;48.80;101108.03;5079850;28;20504;-91
2023/03/01 11:52:49;;;;;;;21.85;13.52;;;;;;;6.88;48.35;101111.56;5075388;28;20111;-92
2023/03/01 11:55:40;;;;;;;;;;;;;;;6.93;48.20;101111.47;5068421;28;20052;-93
2023/03/01 11:58:39;;;;;;;18.92;13.85;;;;;;;7.12;48.19;101093.50;5080936;28;19994;-92
2023/03/01 12:01:32;;;;;;;20.90;14.35;;;;;;;7.25;47.77;101103.75;5083264;28;20043;-93
2023/03/01 12:04:18;;;;;;;24.17;13.73;;;;;;;7.30;47.56;101090.47;5089034;28;20040;-92
2023/03/01 12:07:48;;;;;;;20.52;13.05;;;;;;;7.08;45.74;101040.06;5085967;28;20109;-94
2023/03/01 12:10:36;;;;;;;19.02;13.25;;;;;;;7.20;45.90;101046.81;5087789;28;20056;-92
2023/03/01 12:13:36;;;;;;;19.75;12.32;;;;;;;7.45;45.58;101079.59;5086275;28;20104;-94
2023/03/01 12:16:56;;;;;;;19.13;13.75;;;;;;;7.28;45.00;101042.22;5087246;28;20079;-92
2023/03/01 12:20:20;;;;;;;21.55;13.10;;;;;;;7.17;44.22;101004.72;5082895;28;20068;-94
2023/03/01 12:23:45;;;;;;;18.85;13.23;;;;;;;7.55;44.97;101061.81;5080356;28;20538;-93
2023/03/01 12:27:04;;;;;;;18.92;13.60;;;;;;;7.69;44.33;101059.69;5084584;28;20071;-90
2023/03/01 12:30:16;;;;;;;20.03;12.73;;;;;;;7.84;44.40;101053.19;5083877;28;20065;-93
2023/03/01 12:33:33;;;;;;;21.50;13.10;;;;;;;7.75;43.64;101048.97;5064047;28;20478;-89
2023/03/01 12:36:46;;;;;;;18.52;13.15;;;;;;;7.61;43.75;101040.56;5074371;28;20164;-90
2023/03/01 12:40:07;;;;;;;19.83;12.88;;;;;;;7.63;44.05;101042.25;5076979;28;20036;-91
2023/03/01 12:43:15;;;;;;;;;;;;;;;7.71;43.83;101034.16;5081901;28;20104;-93
2023/03/01 12:46:57;;;;;;;16.55;12.43;;;;;;;7.67;43.23;101028.09;5092397;28;19923;-92
2023/03/01 12:49:54;;;;;;;17.83;12.43;;;;;;;7.65;43.27;101026.41;5004567;28;20042;-93
2023/03/01 12:53:02;;;;;;;16.80;11.35;;;;;;;7.51;42.59;101018.84;5031806;28;20062;-93
2023/03/01 12:55:54;;;;;;;15.93;11.52;;;;;;;7.23;42.55;100968.59;5017393;28;20042;-92
2023/03/01 12:58:59;;;;;;;15.40;11.18;;;;;;;7.49;43.08;101004.84;5029794;28;20026;-94
2023/03/01 13:02:28;;;;;;;18.10;11.07;;;;;;;7.64;42.68;100998.31;5097995;28;20152;-93
2023/03/01 13:05:56;;;;;;;16.77;11.35;;;;;;;7.77;41.91;101005.00;5092769;28;20091;-96
2023/03/01 13:08:42;;;;;;;17.27;11.00;;;;;;;7.50;41.54;100945.09;5096132;28;20099;-95
2023/03/01 13:11:21;;;;;;;15.20;10.45;;;;;;;7.90;41.42;100993.22;5112560;28;20064;-94
2023/03/01 13:14:34;;;;;;;15.57;10.77;;;;;;;8.03;42.26;100991.97;5079764;28;20181;-93
2023/03/01 13:17:54;;;;;;;18.58;11.25;;;;;;;8.00;43.71;100960.44;5109516;28;20079;-95
2023/03/01 13:20:48;;;;;;;17.05;11.82;;;;;;;8.29;43.35;100993.91;5078958;28;20032;-93